Time;durP1;ratioP1;P1;durP2;ratioP2;P2;SDS_P1;SDS_P2;PMS_P1;PMS_P2;Temp;Humidity;BMP_temperature;BMP_pressure;BME280_temperature;BME280_humidity;BME280_pressure;Samples;Min_cycle;Max_cycle;Signal;HPM_P1;HPM_P2
2022/09/08 00:00:13;;;;;;;12.52;3.03;;;17.90;99.90;;;;;;4992042;28;20500;-69
2022/09/08 00:02:38;;;;;;;6.72;2.80;;;17.90;99.90;;;;;;4993259;28;20093;-69
2022/09/08 00:05:05;;;;;;;10.93;2.65;;;17.90;99.90;;;;;;4991850;28;20133;-67
2022/09/08 00:07:32;;;;;;;13.20;3.58;;;17.90;99.90;;;;;;4992727;28;20084;-68
2022/09/08 00:09:58;;;;;;;11.75;3.30;;;17.90;99.90;;;;;;4992840;28;20061;-70
2022/09/08 00:12:24;;;;;;;9.73;2.63;;;17.90;99.90;;;;;;4993261;28;20385;-69
2022/09/08 00:14:50;;;;;;;10.60;2.70;;;17.90;99.90;;;;;;4993302;28;20023;-69
2022/09/08 00:17:16;;;;;;;10.63;2.80;;;17.90;99.90;;;;;;4993217;28;20743;-69
2022/09/08 00:19:41;;;;;;;7.07;2.40;;;17.90;99.90;;;;;;4992664;28;20122;-70
2022/09/08 00:22:07;;;;;;;3.55;2.28;;;17.90;99.90;;;;;;4992660;28;20034;-69
2022/09/08 00:24:33;;;;;;;13.30;2.90;;;17.90;99.90;;;;;;4993082;28;20033;-70
2022/09/08 00:26:58;;;;;;;8.25;2.25;;;17.90;99.90;;;;;;4993032;28;20041;-73
2022/09/08 00:29:24;;;;;;;13.38;2.88;;;17.90;99.90;;;;;;4993412;28;20026;-69
2022/09/08 00:31:49;;;;;;;7.13;2.22;;;17.90;99.90;;;;;;4993166;28;20025;-71
2022/09/08 00:34:15;;;;;;;10.65;2.83;;;17.90;99.90;;;;;;4993113;28;20022;-70
2022/09/08 00:36:40;;;;;;;11.20;3.72;;;17.80;99.90;;;;;;4992919;28;20027;-70
2022/09/08 00:39:06;;;;;;;11.10;3.10;;;17.90;99.90;;;;;;4992609;28;20031;-71
2022/09/08 00:41:31;;;;;;;11.00;3.42;;;17.80;99.90;;;;;;4993171;28;20042;-69
2022/09/08 00:44:01;;;;;;;11.20;2.80;;;17.80;99.90;;;;;;4992694;28;20042;-69
2022/09/08 00:46:31;;;;;;;7.53;2.90;;;17.90;99.90;;;;;;4992786;28;20453;-69
2022/09/08 00:49:13;;;;;;;10.30;3.00;;;17.80;99.90;;;;;;4992842;28;20026;-72
2022/09/08 00:51:42;;;;;;;10.40;3.53;;;17.90;99.90;;;;;;4992842;28;20080;-70
2022/09/08 00:54:10;;;;;;;11.00;3.72;;;17.90;99.90;;;;;;4992675;28;20113;-68
2022/09/08 00:56:39;;;;;;;11.63;3.60;;;17.90;99.90;;;;;;4992795;28;20022;-69
2022/09/08 00:59:06;;;;;;;12.02;3.58;;;17.90;99.90;;;;;;4993174;28;20097;-71
2022/09/08 01:01:33;;;;;;;14.52;4.00;;;17.90;99.90;;;;;;4992651;28;20085;-70
2022/09/08 01:03:59;;;;;;;10.13;3.60;;;18.00;99.90;;;;;;4991846;28;20033;-69
2022/09/08 01:12:46;;;;;;;12.05;3.40;;;18.00;99.90;;;;;;4991545;28;20077;-70
2022/09/08 01:15:20;;;;;;;11.18;3.90;;;18.10;99.90;;;;;;4992450;28;20022;-68
2022/09/08 01:17:48;;;;;;;9.07;3.35;;;18.10;99.90;;;;;;4992539;28;20022;-69
2022/09/08 01:20:17;;;;;;;13.40;4.70;;;18.10;99.90;;;;;;4992279;28;20034;-70
2022/09/08 01:23:01;;;;;;;6.35;3.83;;;18.10;99.90;;;;;;4992108;28;20559;-70
2022/09/08 01:26:08;;;;;;;15.55;4.78;;;18.10;99.90;;;;;;4992211;28;20081;-69
2022/09/08 01:29:00;;;;;;;15.88;4.95;;;18.10;99.90;;;;;;4986221;28;20125;-69
2022/09/08 01:31:26;;;;;;;;;;;18.00;99.90;;;;;;4993053;28;20018;-69
2022/09/08 01:33:52;;;;;;;12.32;4.93;;;18.00;99.90;;;;;;4995655;28;19902;-70
2022/09/08 01:36:19;;;;;;;12.02;5.30;;;18.00;99.90;;;;;;4995688;28;20041;-69
2022/09/08 01:38:45;;;;;;;14.27;5.25;;;18.00;99.90;;;;;;4995365;28;20018;-68
2022/09/08 01:41:13;;;;;;;13.43;5.63;;;18.00;99.90;;;;;;4995129;28;20026;-71
2022/09/08 01:43:39;;;;;;;17.23;5.63;;;18.10;99.90;;;;;;4993880;28;20081;-70
2022/09/08 01:46:04;;;;;;;13.82;5.85;;;18.10;99.90;;;;;;4995586;28;20046;-74
2022/09/08 01:48:30;;;;;;;13.50;6.25;;;18.20;99.90;;;;;;4995132;28;20353;-73
2022/09/08 01:51:00;;;;;;;17.60;6.60;;;18.20;99.90;;;;;;4995306;28;20023;-69
2022/09/08 01:53:27;;;;;;;13.23;4.97;;;18.20;99.90;;;;;;4995314;28;20152;-70
2022/09/08 01:55:53;;;;;;;12.38;4.75;;;18.20;99.90;;;;;;4995397;28;20030;-70
2022/09/08 01:58:18;;;;;;;13.80;5.65;;;18.30;99.90;;;;;;4994872;28;20019;-70
2022/09/08 02:00:44;;;;;;;12.38;5.47;;;18.30;99.90;;;;;;4995204;28;20059;-70
2022/09/08 02:03:11;;;;;;;17.52;6.65;;;18.30;99.90;;;;;;4993815;28;20489;-69
2022/09/08 02:05:38;;;;;;;13.13;6.00;;;18.30;99.90;;;;;;4994969;28;20077;-73
2022/09/08 02:08:04;;;;;;;14.25;6.25;;;18.40;99.90;;;;;;4994978;28;20018;-71
2022/09/08 02:10:30;;;;;;;16.85;6.95;;;18.40;99.90;;;;;;4994285;28;20448;-70
2022/09/08 02:12:56;;;;;;;13.55;6.00;;;18.40;99.90;;;;;;4994787;28;20026;-70
2022/09/08 02:15:22;;;;;;;17.77;6.00;;;18.30;99.90;;;;;;4993518;28;20432;-69
2022/09/08 02:17:47;;;;;;;12.55;4.82;;;18.30;99.90;;;;;;4993521;28;20101;-69
2022/09/08 02:20:15;;;;;;;12.15;5.00;;;18.40;99.90;;;;;;4994886;28;20026;-73
2022/09/08 02:22:41;;;;;;;15.32;5.10;;;18.40;99.90;;;;;;4994564;28;20030;-69
2022/09/08 02:25:06;;;;;;;16.02;5.50;;;18.40;99.90;;;;;;4994527;28;20031;-73
2022/09/08 02:27:32;;;;;;;18.75;5.93;;;18.40;99.90;;;;;;4994423;28;20038;-70
2022/09/08 02:29:57;;;;;;;13.20;5.13;;;18.40;99.90;;;;;;4994746;28;20088;-70
2022/09/08 02:32:23;;;;;;;13.93;5.00;;;18.40;99.90;;;;;;4994424;28;20464;-70
2022/09/08 02:34:49;;;;;;;10.70;4.30;;;18.40;99.90;;;;;;4994104;28;20454;-69
2022/09/08 02:37:14;;;;;;;17.17;5.85;;;18.30;99.90;;;;;;4994612;28;20042;-73
2022/09/08 02:39:40;;;;;;;10.55;4.75;;;18.30;99.90;;;;;;4994160;28;20395;-69
2022/09/08 02:42:06;;;;;;;17.13;4.70;;;18.40;99.90;;;;;;4994004;28;20110;-71
2022/09/08 02:44:32;;;;;;;15.77;5.38;;;18.40;99.90;;;;;;4993075;28;20026;-70
2022/09/08 02:46:57;;;;;;;11.48;5.35;;;18.40;99.90;;;;;;4994395;28;20125;-69
2022/09/08 02:49:23;;;;;;;16.00;5.57;;;18.40;99.90;;;;;;4992923;28;20116;-71
2022/09/08 02:51:49;;;;;;;14.82;5.60;;;18.40;99.90;;;;;;4994427;28;20026;-68
2022/09/08 02:54:15;;;;;;;29.02;14.15;;;18.40;99.90;;;;;;4992660;28;20078;-69
2022/09/08 02:56:40;;;;;;;14.38;6.00;;;18.40;99.90;;;;;;4993978;28;20015;-72
2022/09/08 02:59:06;;;;;;;16.27;6.95;;;18.40;99.90;;;;;;4994036;28;20045;-71
2022/09/08 03:01:32;;;;;;;15.93;6.57;;;18.40;99.90;;;;;;4993715;28;20034;-73
2022/09/08 03:03:58;;;;;;;15.63;6.90;;;18.40;99.90;;;;;;4993670;28;20469;-71
2022/09/08 03:06:23;;;;;;;14.02;6.70;;;18.40;99.90;;;;;;4994050;28;20070;-69
2022/09/08 03:08:49;;;;;;;14.48;7.30;;;18.40;99.90;;;;;;4994107;28;20113;-71
2022/09/08 03:11:16;;;;;;;19.35;8.38;;;18.50;99.90;;;;;;4993518;28;20045;-70
2022/09/08 03:13:41;;;;;;;17.23;7.03;;;18.50;99.90;;;;;;4993651;28;20026;-66
2022/09/08 03:16:07;;;;;;;22.10;7.88;;;18.50;99.90;;;;;;4993949;28;20476;-68
2022/09/08 03:18:33;;;;;;;18.42;8.15;;;18.50;99.90;;;;;;4993841;28;20365;-69
2022/09/08 03:21:05;;;;;;;17.73;7.65;;;18.50;99.90;;;;;;4993924;28;20023;-68
2022/09/08 03:23:31;;;;;;;;;;;18.40;99.90;;;;;;4994067;28;20105;-68
2022/09/08 03:26:02;;;;;;;23.13;9.50;;;18.40;99.90;;;;;;4993618;28;20195;-71
2022/09/08 03:28:28;;;;;;;17.75;8.90;;;18.30;99.90;;;;;;4993596;28;20034;-73
2022/09/08 03:30:53;;;;;;;24.40;9.45;;;18.20;99.90;;;;;;4993663;28;20027;-71
2022/09/08 03:33:19;;;;;;;20.30;9.63;;;18.20;99.90;;;;;;4993513;28;20376;-71
2022/09/08 03:35:46;;;;;;;22.95;10.45;;;18.10;99.90;;;;;;4993630;28;20031;-71
2022/09/08 03:38:13;;;;;;;23.27;11.20;;;18.10;99.90;;;;;;4993065;28;20014;-74
2022/09/08 03:40:40;;;;;;;25.48;11.30;;;18.00;99.90;;;;;;4993462;28;20045;-71
2022/09/08 03:43:06;;;;;;;25.02;12.30;;;17.90;99.90;;;;;;4993245;28;20018;-72
2022/09/08 03:45:32;;;;;;;23.00;10.27;;;17.90;99.90;;;;;;4993655;28;20033;-72
2022/09/08 03:47:58;;;;;;;26.17;11.18;;;17.80;99.90;;;;;;4993087;28;20368;-75
2022/09/08 03:50:24;;;;;;;25.75;11.95;;;17.80;99.90;;;;;;4993178;28;20022;-72
2022/09/08 03:52:49;;;;;;;25.23;12.45;;;17.80;99.90;;;;;;4993096;28;20030;-72
2022/09/08 03:55:15;;;;;;;23.17;11.57;;;17.70;99.90;;;;;;4992501;28;20041;-72
2022/09/08 03:57:41;;;;;;;27.73;13.82;;;17.70;99.90;;;;;;4993455;28;20411;-72
2022/09/08 04:00:08;;;;;;;26.60;14.00;;;17.60;99.90;;;;;;4993082;28;20049;-72
2022/09/08 04:02:34;;;;;;;31.15;14.77;;;17.60;99.90;;;;;;4992698;28;20069;-73
2022/09/08 04:05:00;;;;;;;28.75;13.38;;;17.70;99.90;;;;;;4992834;28;20026;-76
2022/09/08 04:07:29;;;;;;;25.33;13.32;;;17.60;99.90;;;;;;4993023;28;20361;-71
2022/09/08 04:09:56;;;;;;;29.83;14.60;;;17.60;99.90;;;;;;4992778;28;20046;-75
2022/09/08 04:12:23;;;;;;;26.58;14.60;;;17.60;99.90;;;;;;4992909;28;20088;-71
2022/09/08 04:14:49;;;;;;;29.20;15.50;;;17.60;99.90;;;;;;4992770;28;20022;-70
2022/09/08 04:17:16;;;;;;;33.45;14.95;;;17.60;99.90;;;;;;4992815;28;20024;-70
2022/09/08 04:19:42;;;;;;;29.27;14.57;;;17.60;99.90;;;;;;4992693;28;20202;-71
2022/09/08 04:22:08;;;;;;;27.15;14.20;;;17.50;99.90;;;;;;4992730;28;20058;-70
2022/09/08 04:24:34;;;;;;;25.67;15.13;;;17.60;99.90;;;;;;4992612;28;20408;-71
2022/09/08 04:27:00;;;;;;;30.35;16.58;;;17.60;99.90;;;;;;4991289;28;20154;-70
2022/09/08 04:29:26;;;;;;;29.70;16.02;;;17.60;99.90;;;;;;4992930;28;20034;-71
2022/09/08 04:31:52;;;;;;;37.30;16.88;;;17.60;99.90;;;;;;4992839;28;20477;-71
2022/09/08 04:34:18;;;;;;;31.75;14.60;;;17.60;99.90;;;;;;4992077;28;20027;-70
2022/09/08 04:36:45;;;;;;;29.70;15.77;;;17.60;99.90;;;;;;4992951;28;20026;-72
2022/09/08 04:39:11;;;;;;;31.58;15.82;;;17.60;99.90;;;;;;4992437;28;20386;-71
2022/09/08 04:41:38;;;;;;;30.52;15.05;;;17.60;99.90;;;;;;4992760;28;20023;-73
2022/09/08 04:44:04;;;;;;;30.25;14.90;;;17.60;99.90;;;;;;4991302;28;20022;-71
2022/09/08 04:46:31;;;;;;;30.23;15.13;;;17.60;99.90;;;;;;4992373;28;20061;-73
2022/09/08 04:48:57;;;;;;;29.30;14.18;;;17.60;99.90;;;;;;4992648;28;20030;-70
2022/09/08 04:51:25;;;;;;;31.92;16.05;;;17.50;99.90;;;;;;4992443;28;20041;-71
2022/09/08 04:53:55;;;;;;;34.67;17.20;;;17.60;99.90;;;;;;4991045;28;20484;-71
2022/09/08 04:56:22;;;;;;;28.42;15.23;;;17.50;99.90;;;;;;4991091;28;20452;-70
2022/09/08 04:58:49;;;;;;;31.20;15.75;;;17.60;99.90;;;;;;4992394;28;20364;-71
2022/09/08 05:01:23;;;;;;;28.20;15.98;;;17.50;99.90;;;;;;4990529;28;20423;-70
2022/09/08 05:03:51;;;;;;;25.15;13.20;;;17.60;99.90;;;;;;4992884;28;20440;-72
2022/09/08 05:06:17;;;;;;;26.92;13.55;;;17.60;99.90;;;;;;4994311;28;20089;-69
2022/09/08 05:08:48;;;;;;;22.48;11.80;;;17.60;99.90;;;;;;4996386;28;20022;-76
2022/09/08 05:11:14;;;;;;;28.83;13.40;;;17.60;99.90;;;;;;4996364;28;20047;-73
2022/09/08 05:13:40;;;;;;;31.00;14.07;;;17.50;99.90;;;;;;4996091;28;20109;-78
2022/09/08 05:16:08;;;;;;;29.60;13.55;;;17.50;99.90;;;;;;4996388;28;20401;-75
2022/09/08 05:18:34;;;;;;;30.00;13.82;;;17.50;99.90;;;;;;4996132;28;20038;-75
2022/09/08 05:21:00;;;;;;;25.30;12.80;;;17.40;99.90;;;;;;4996155;28;20022;-75
2022/09/08 05:23:25;;;;;;;25.17;12.25;;;17.40;99.90;;;;;;4995298;28;20026;-79
2022/09/08 05:26:00;;;;;;;25.48;13.15;;;17.40;99.90;;;;;;4996261;28;20022;-76
2022/09/08 05:28:28;;;;;;;33.70;13.20;;;17.30;99.90;;;;;;4996035;28;20030;-76
2022/09/08 05:30:54;;;;;;;27.98;12.90;;;17.30;99.90;;;;;;4996095;28;20022;-76
2022/09/08 05:33:20;;;;;;;27.88;13.90;;;17.30;99.90;;;;;;4996141;28;20030;-75
2022/09/08 05:35:47;;;;;;;29.88;12.80;;;17.30;99.90;;;;;;4994503;28;20018;-77
2022/09/08 05:38:13;;;;;;;28.98;14.27;;;17.30;99.90;;;;;;4995046;28;20025;-75
2022/09/08 05:40:38;;;;;;;25.42;13.13;;;17.20;99.90;;;;;;4996103;28;20031;-75
2022/09/08 05:43:04;;;;;;;25.83;10.90;;;17.20;99.90;;;;;;4995414;28;20033;-77
2022/09/08 05:45:30;;;;;;;33.42;11.63;;;17.20;99.90;;;;;;4995852;28;20029;-74
2022/09/08 05:47:55;;;;;;;25.73;11.25;;;17.10;99.90;;;;;;4995649;28;20042;-73
2022/09/08 05:50:21;;;;;;;30.55;14.13;;;17.20;99.90;;;;;;4995930;28;20445;-74
2022/09/08 05:52:46;;;;;;;35.47;13.63;;;17.20;99.90;;;;;;4995695;28;20088;-74
2022/09/08 05:55:13;;;;;;;31.10;14.02;;;17.10;99.90;;;;;;4995415;28;20025;-76
2022/09/08 05:57:39;;;;;;;27.27;12.07;;;17.10;99.90;;;;;;4995415;28;20380;-74
2022/09/08 06:00:07;;;;;;;29.15;14.13;;;17.20;99.90;;;;;;4995478;28;20030;-73
2022/09/08 06:02:32;;;;;;;31.38;12.55;;;17.10;99.90;;;;;;4995651;28;20461;-74
2022/09/08 06:04:58;;;;;;;27.25;12.75;;;17.10;99.90;;;;;;4995630;28;20026;-73
2022/09/08 06:07:24;;;;;;;24.23;11.65;;;17.10;99.90;;;;;;4995504;28;20337;-73
2022/09/08 06:09:49;;;;;;;31.13;11.88;;;17.10;99.90;;;;;;4995338;28;20121;-74
2022/09/08 06:12:15;;;;;;;32.40;12.30;;;17.10;99.90;;;;;;4994969;28;20026;-74
2022/09/08 06:14:41;;;;;;;26.23;10.60;;;17.10;99.90;;;;;;4995416;28;20465;-73
2022/09/08 06:17:06;;;;;;;24.00;10.15;;;17.10;99.90;;;;;;4994991;28;20053;-72
2022/09/08 06:19:33;;;;;;;26.40;11.15;;;17.10;99.90;;;;;;4995482;28;20038;-72
2022/09/08 06:21:58;;;;;;;24.52;9.43;;;17.10;99.90;;;;;;4993940;28;20061;-72
2022/09/08 06:24:24;;;;;;;23.23;10.10;;;17.10;99.90;;;;;;4995371;28;20077;-72
2022/09/08 06:27:14;;;;;;;23.80;8.88;;;17.10;99.90;;;;;;4994500;28;20057;-73
2022/09/08 06:30:23;;;;;;;22.75;8.25;;;17.10;99.90;;;;;;4995105;28;20101;-74
2022/09/08 06:32:56;;;;;;;21.02;8.63;;;17.00;99.90;;;;;;4985795;28;20550;-75
2022/09/08 06:35:42;;;;;;;15.90;6.35;;;16.90;99.90;;;;;;4995002;28;20069;-75
2022/09/08 06:39:02;;;;;;;13.70;5.18;;;16.90;99.90;;;;;;4995065;28;20030;-74
2022/09/08 06:41:40;;;;;;;10.38;4.20;;;16.90;99.90;;;;;;4953615;28;20122;-74
2022/09/08 06:44:16;;;;;;;11.55;3.30;;;16.90;99.90;;;;;;4995038;28;20097;-74
2022/09/08 06:46:43;;;;;;;12.27;4.38;;;16.80;99.90;;;;;;4994787;28;20030;-76
2022/09/08 06:49:09;;;;;;;8.45;2.92;;;16.80;99.90;;;;;;4994666;28;20313;-76
2022/09/08 06:52:12;;;;;;;14.25;5.32;;;16.80;99.90;;;;;;4995059;28;20073;-73
2022/09/08 06:55:06;;;;;;;10.40;3.85;;;16.80;99.90;;;;;;4994206;28;20026;-72
2022/09/08 06:57:47;;;;;;;12.05;3.80;;;16.80;99.90;;;;;;4994090;28;20049;-73
2022/09/08 07:00:20;;;;;;;9.23;3.78;;;16.80;99.90;;;;;;4994030;28;20049;-72
2022/09/08 07:03:13;;;;;;;14.13;4.88;;;16.80;99.90;;;;;;4994582;28;20026;-74
2022/09/08 07:05:45;;;;;;;13.32;4.90;;;16.80;99.90;;;;;;4994943;28;20026;-74
2022/09/08 07:08:25;;;;;;;12.68;4.95;;;16.80;99.90;;;;;;4994388;28;20031;-73
2022/09/08 07:11:11;;;;;;;11.77;4.40;;;16.80;99.90;;;;;;4994288;28;20387;-73
2022/09/08 07:13:36;;;;;;;15.63;5.32;;;16.80;99.90;;;;;;4994112;28;20097;-74
2022/09/08 07:16:18;;;;;;;11.85;5.07;;;16.80;99.90;;;;;;4993498;28;20102;-74
2022/09/08 07:18:49;;;;;;;13.13;4.95;;;16.80;99.90;;;;;;4994137;28;20061;-73
2022/09/08 07:21:25;;;;;;;12.93;5.30;;;16.80;99.90;;;;;;4993937;28;20101;-75
2022/09/08 07:23:52;;;;;;;13.05;5.90;;;16.80;99.90;;;;;;4994285;28;20022;-73
2022/09/08 07:26:29;;;;;;;15.85;5.93;;;16.80;99.90;;;;;;4993844;28;20037;-73
2022/09/08 07:29:02;;;;;;;13.43;5.55;;;16.80;99.90;;;;;;4993632;28;20499;-72
2022/09/08 07:31:28;;;;;;;13.45;4.80;;;16.90;99.90;;;;;;4993909;28;20036;-73
2022/09/08 07:34:04;;;;;;;10.30;4.53;;;16.90;99.90;;;;;;4993913;28;20026;-72
2022/09/08 07:36:41;;;;;;;9.85;4.53;;;16.80;99.90;;;;;;4993805;28;20030;-77
2022/09/08 07:39:21;;;;;;;10.52;4.78;;;16.90;99.90;;;;;;4994000;28;20046;-72
2022/09/08 07:41:50;;;;;;;14.80;5.70;;;16.90;99.90;;;;;;4993994;28;20101;-73
2022/09/08 07:44:17;;;;;;;9.93;5.65;;;16.90;99.90;;;;;;4993639;28;20022;-73
2022/09/08 07:46:51;;;;;;;13.43;5.85;;;17.00;99.90;;;;;;4991318;28;20072;-73
2022/09/08 07:49:45;;;;;;;13.23;5.00;;;17.10;99.90;;;;;;4993132;28;20018;-76
2022/09/08 07:52:42;;;;;;;11.75;5.40;;;17.10;99.90;;;;;;4993211;28;20106;-71
2022/09/08 07:55:22;;;;;;;13.02;5.53;;;17.20;99.90;;;;;;4993235;28;20026;-73
2022/09/08 07:58:10;;;;;;;15.88;5.55;;;17.20;99.90;;;;;;4992060;28;20037;-75
2022/09/08 08:01:01;;;;;;;16.20;6.00;;;17.30;99.90;;;;;;4993405;28;20022;-72
2022/09/08 08:03:48;;;;;;;10.63;5.80;;;17.30;99.90;;;;;;4993043;28;20218;-73
2022/09/08 08:06:16;;;;;;;12.77;6.00;;;17.30;99.90;;;;;;4993333;28;20475;-74
2022/09/08 08:08:50;;;;;;;13.15;6.70;;;17.40;99.90;;;;;;4993538;28;20033;-74
2022/09/08 08:11:27;;;;;;;13.70;7.35;;;17.50;99.90;;;;;;4993453;28;20122;-73
2022/09/08 08:14:12;;;;;;;14.48;7.30;;;17.60;99.90;;;;;;4993181;28;20026;-74
2022/09/08 08:17:19;;;;;;;15.35;7.07;;;17.70;99.90;;;;;;4993410;28;20036;-72
2022/09/08 08:20:02;;;;;;;16.27;7.85;;;17.70;99.90;;;;;;4983917;28;20063;-72
2022/09/08 08:22:56;;;;;;;16.65;7.97;;;17.90;99.90;;;;;;4993383;28;20069;-75
2022/09/08 08:25:25;;;;;;;18.48;8.45;;;17.90;99.90;;;;;;4993157;28;20026;-73
2022/09/08 08:28:13;;;;;;;16.98;8.85;;;18.10;99.90;;;;;;4993147;28;20034;-71
2022/09/08 08:31:02;;;;;;;18.00;9.63;;;18.10;99.90;;;;;;4993156;28;20042;-76
2022/09/08 08:33:40;;;;;;;20.40;9.70;;;18.10;99.90;;;;;;4972039;28;20049;-72
2022/09/08 08:36:09;;;;;;;15.60;7.45;;;18.30;99.90;;;;;;4993007;28;20482;-72
2022/09/08 08:38:42;;;;;;;16.85;8.32;;;18.50;99.90;;;;;;4993037;28;20023;-71
2022/09/08 08:41:37;;;;;;;15.18;8.27;;;18.60;99.90;;;;;;4994587;28;20024;-75
2022/09/08 08:44:39;;;;;;;17.65;9.25;;;18.70;99.90;;;;;;4996632;28;20456;-74
2022/09/08 08:47:27;;;;;;;18.27;10.13;;;18.90;99.90;;;;;;4995885;28;20030;-72
2022/09/08 08:50:21;;;;;;;18.58;11.05;;;19.00;99.90;;;;;;4996891;28;20080;-73
2022/09/08 08:53:08;;;;;;;16.63;8.00;;;19.10;99.90;;;;;;4996668;28;20477;-73
2022/09/08 08:55:55;;;;;;;16.17;9.98;;;19.10;99.90;;;;;;4997020;28;20109;-74
2022/09/08 08:58:50;;;;;;;15.73;8.80;;;19.10;99.90;;;;;;4996649;28;20023;-72
2022/09/08 09:01:15;;;;;;;20.60;9.85;;;19.00;99.90;;;;;;4975376;28;20188;-71
2022/09/08 09:03:51;;;;;;;16.10;9.68;;;19.00;99.90;;;;;;4997066;28;20086;-72
2022/09/08 09:06:54;;;;;;;19.80;11.75;;;19.00;99.90;;;;;;4996178;28;20022;-71
2022/09/08 09:09:34;;;;;;;23.27;10.63;;;19.10;99.90;;;;;;4996140;28;20037;-71
2022/09/08 09:12:38;;;;;;;16.60;9.70;;;19.10;99.90;;;;;;4996498;28;20042;-77
2022/09/08 09:15:18;;;;;;;18.77;12.30;;;19.10;99.90;;;;;;4996248;28;20023;-71
2022/09/08 09:18:12;;;;;;;18.60;9.73;;;19.40;99.90;;;;;;4996442;28;20097;-71
2022/09/08 09:20:50;;;;;;;17.85;11.13;;;19.70;99.90;;;;;;4995716;28;20037;-74
2022/09/08 09:23:43;;;;;;;16.42;9.38;;;20.50;99.90;;;;;;4996678;28;20014;-71
2022/09/08 09:26:17;;;;;;;10.68;5.78;;;21.70;99.90;;;;;;4991078;28;20546;-71
2022/09/08 09:28:48;;;;;;;10.60;5.60;;;23.10;99.90;;;;;;4995975;28;20064;-73
2022/09/08 09:31:35;;;;;;;6.53;3.15;;;23.80;99.90;;;;;;4996306;28;20027;-72
2022/09/08 09:34:31;;;;;;;6.60;3.35;;;25.00;99.90;;;;;;4996032;28;20023;-71
2022/09/08 09:37:30;;;;;;;5.55;2.58;;;26.40;99.90;;;;;;4996151;28;20109;-71
2022/09/08 09:40:30;;;;;;;4.75;2.30;;;27.60;99.60;;;;;;4993513;28;20076;-70
2022/09/08 09:43:10;;;;;;;5.57;2.13;;;27.20;99.40;;;;;;4995221;28;20105;-73
2022/09/08 09:45:51;;;;;;;8.98;2.75;;;26.60;98.90;;;;;;4995571;28;20022;-71
2022/09/08 09:48:28;;;;;;;5.60;2.60;;;26.70;99.90;;;;;;4994290;28;20034;-70
2022/09/08 09:50:57;;;;;;;4.47;2.30;;;27.20;99.00;;;;;;4995402;28;20022;-71
2022/09/08 09:53:45;;;;;;;4.18;2.00;;;26.90;98.40;;;;;;4994526;28;20416;-71
2022/09/08 09:56:33;;;;;;;6.75;2.80;;;26.20;98.00;;;;;;4995316;28;20341;-73
2022/09/08 09:59:38;;;;;;;8.63;3.08;;;25.30;99.30;;;;;;4995781;28;20046;-70
2022/09/08 10:02:39;;;;;;;5.22;1.95;;;24.90;99.90;;;;;;4995218;28;20098;-71
2022/09/08 10:05:12;;;;;;;8.60;3.30;;;24.80;99.90;;;;;;4995355;28;20113;-71
2022/09/08 10:08:19;;;;;;;6.63;1.98;;;25.60;99.90;;;;;;4995145;28;20053;-71
2022/09/08 10:11:09;;;;;;;5.43;2.67;;;26.50;99.50;;;;;;4993485;28;20484;-71
2022/09/08 10:13:41;;;;;;;9.32;2.70;;;27.00;97.70;;;;;;4995284;28;20037;-75
2022/09/08 10:16:44;;;;;;;7.93;2.30;;;26.50;97.60;;;;;;4995398;28;20551;-71
2022/09/08 10:19:40;;;;;;;9.82;3.40;;;25.80;98.00;;;;;;4959994;28;20041;-71
2022/09/08 10:22:33;;;;;;;7.07;2.30;;;24.90;99.00;;;;;;4994792;28;20460;-75
2022/09/08 10:25:24;;;;;;;6.47;2.58;;;24.60;99.90;;;;;;4993593;28;20121;-70
2022/09/08 10:28:01;;;;;;;9.45;3.80;;;24.50;99.90;;;;;;4994549;28;20078;-73
2022/09/08 10:30:39;;;;;;;6.28;3.42;;;24.10;99.90;;;;;;4994889;28;20026;-72
2022/09/08 10:33:27;;;;;;;12.13;4.63;;;23.80;99.90;;;;;;4994717;28;20481;-74
2022/09/08 10:35:58;;;;;;;7.47;3.92;;;23.40;99.90;;;;;;4975291;28;20029;-71
2022/09/08 10:38:40;;;;;;;7.53;3.65;;;23.00;99.90;;;;;;4975374;28;20055;-72
2022/09/08 10:41:24;;;;;;;;;;;22.70;99.90;;;;;;4975639;28;20472;-72
2022/09/08 10:44:18;;;;;;;7.93;4.05;;;22.40;99.90;;;;;;4974959;28;20340;-72
2022/09/08 10:47:16;;;;;;;7.45;4.25;;;22.20;99.90;;;;;;4973913;28;20095;-73
2022/09/08 10:50:17;;;;;;;10.15;5.75;;;22.00;99.90;;;;;;4975180;28;20033;-73
2022/09/08 10:52:58;;;;;;;11.53;6.17;;;21.90;99.90;;;;;;4993413;28;20101;-74
2022/09/08 10:55:32;;;;;;;12.05;7.07;;;21.80;99.90;;;;;;4993100;28;20022;-72
2022/09/08 10:58:36;;;;;;;8.43;5.28;;;21.90;99.90;;;;;;4994349;28;20491;-71
2022/09/08 11:01:20;;;;;;;12.15;5.18;;;21.90;99.90;;;;;;4994295;28;20064;-70
2022/09/08 11:04:30;;;;;;;14.68;7.35;;;21.70;99.90;;;;;;4994531;28;20062;-71
2022/09/08 11:07:11;;;;;;;9.85;4.65;;;21.70;99.90;;;;;;4993859;28;20451;-74
2022/09/08 11:10:13;;;;;;;9.18;4.25;;;21.70;99.90;;;;;;4993627;28;20382;-70
2022/09/08 11:13:03;;;;;;;9.38;3.55;;;21.70;99.90;;;;;;4994169;28;20148;-74
2022/09/08 11:15:54;;;;;;;5.05;2.50;;;21.80;99.90;;;;;;4991518;28;20421;-70
2022/09/08 11:18:19;;;;;;;7.70;3.25;;;22.00;99.90;;;;;;4993193;28;20022;-71
2022/09/08 11:20:57;;;;;;;9.45;2.75;;;22.20;99.90;;;;;;4993801;28;20048;-75
2022/09/08 11:24:06;;;;;;;4.35;1.77;;;22.40;99.90;;;;;;4993599;28;20029;-72
2022/09/08 11:26:40;;;;;;;4.40;1.75;;;22.30;99.90;;;;;;4984446;28;20038;-72
2022/09/08 11:29:13;;;;;;;6.30;1.73;;;22.50;99.90;;;;;;4993441;28;20034;-70
2022/09/08 11:32:02;;;;;;;7.40;2.08;;;22.70;99.90;;;;;;4993786;28;20030;-71
2022/09/08 11:34:44;;;;;;;6.55;1.83;;;23.10;99.90;;;;;;4993911;28;20022;-73
2022/09/08 11:37:35;;;;;;;3.72;1.45;;;24.30;99.90;;;;;;4993356;28;20374;-74
2022/09/08 11:40:22;;;;;;;6.80;2.00;;;25.80;99.90;;;;;;4993639;28;20057;-72
2022/09/08 11:43:18;;;;;;;14.30;2.40;;;26.80;98.80;;;;;;4993820;28;20018;-74
2022/09/08 11:46:05;;;;;;;7.05;1.80;;;27.70;96.80;;;;;;4992492;28;20057;-73
2022/09/08 11:48:57;;;;;;;7.97;1.80;;;28.00;94.90;;;;;;4978444;28;20089;-73
2022/09/08 11:51:45;;;;;;;8.82;1.90;;;28.40;94.80;;;;;;4991060;28;20444;-71
2022/09/08 11:54:14;;;;;;;5.90;2.00;;;28.50;93.50;;;;;;4993477;28;20065;-71
2022/09/08 11:56:50;;;;;;;9.80;2.22;;;28.00;94.00;;;;;;4993487;28;20033;-69
2022/09/08 11:59:37;;;;;;;7.38;2.10;;;27.40;93.70;;;;;;4991492;28;20029;-74
2022/09/08 12:02:27;;;;;;;6.93;1.92;;;26.80;95.20;;;;;;4992699;28;20124;-70
2022/09/08 12:05:14;;;;;;;7.63;1.42;;;26.80;94.30;;;;;;4993336;28;20105;-70
2022/09/08 12:08:02;;;;;;;8.48;2.20;;;27.10;94.60;;;;;;4993019;28;20049;-73
2022/09/08 12:10:47;;;;;;;7.35;1.95;;;27.50;94.70;;;;;;4992417;28;20488;-71
2022/09/08 12:13:12;;;;;;;6.85;1.77;;;27.50;93.70;;;;;;4992950;28;20026;-72
2022/09/08 12:16:03;;;;;;;9.13;2.30;;;27.00;94.30;;;;;;4991216;28;20104;-71
2022/09/08 12:18:37;;;;;;;7.35;2.50;;;26.60;94.30;;;;;;4991656;28;20026;-71
2022/09/08 12:21:40;;;;;;;12.25;2.47;;;26.50;94.90;;;;;;4992470;28;20022;-69
2022/09/08 12:24:28;;;;;;;10.77;2.10;;;26.70;94.10;;;;;;4992861;28;20109;-70
2022/09/08 12:27:10;;;;;;;5.88;1.90;;;26.80;94.30;;;;;;4992704;28;20034;-71
2022/09/08 12:30:08;;;;;;;8.35;2.25;;;26.40;94.00;;;;;;4992214;28;20027;-69
2022/09/08 12:32:56;;;;;;;8.70;2.20;;;26.30;95.70;;;;;;4992991;28;20031;-74
2022/09/08 12:35:28;;;;;;;10.23;2.53;;;26.90;94.40;;;;;;4991582;28;20026;-70
2022/09/08 12:38:38;;;;;;;8.70;3.22;;;27.40;94.10;;;;;;4992740;28;20045;-70
2022/09/08 12:41:41;;;;;;;7.03;2.17;;;27.50;93.00;;;;;;4992540;28;20482;-72
2022/09/08 12:44:13;;;;;;;11.05;2.50;;;27.00;93.60;;;;;;4992567;28;20132;-69
2022/09/08 12:46:54;;;;;;;7.00;1.77;;;26.20;93.80;;;;;;4992770;28;20033;-74
2022/09/08 12:49:34;;;;;;;8.98;2.35;;;25.70;94.10;;;;;;4992833;28;20037;-71
2022/09/08 12:52:02;;;;;;;8.95;1.92;;;25.20;94.80;;;;;;4992881;28;20049;-71
2022/09/08 12:54:39;;;;;;;6.95;1.88;;;24.90;94.90;;;;;;4992857;28;20049;-70
2022/09/08 12:57:05;;;;;;;8.77;1.73;;;24.70;95.50;;;;;;4992735;28;20033;-70
2022/09/08 12:59:36;;;;;;;9.23;2.15;;;24.80;95.80;;;;;;4992348;28;20023;-69
2022/09/08 13:02:35;;;;;;;12.13;2.20;;;25.00;95.20;;;;;;4992247;28;20077;-69
2022/09/08 13:05:27;;;;;;;7.82;2.00;;;25.30;95.60;;;;;;4992736;28;20413;-69
2022/09/08 13:08:00;;;;;;;7.55;1.75;;;25.50;95.70;;;;;;4992468;28;20030;-72
2022/09/08 13:10:41;;;;;;;6.28;1.88;;;25.60;95.30;;;;;;4992390;28;20061;-70
2022/09/08 13:13:45;;;;;;;13.82;2.33;;;25.50;95.50;;;;;;4992141;28;20034;-71
2022/09/08 13:16:14;;;;;;;5.72;1.80;;;25.40;95.20;;;;;;4992343;28;20085;-68
2022/09/08 13:18:56;;;;;;;8.07;1.83;;;25.40;95.40;;;;;;4991949;28;20023;-69
2022/09/08 13:21:40;;;;;;;;;;;25.30;95.90;;;;;;4992406;28;20073;-68
2022/09/08 13:24:17;;;;;;;5.93;1.52;;;25.40;95.60;;;;;;4992024;28;19925;-73
2022/09/08 13:27:16;;;;;;;11.02;1.65;;;25.40;95.70;;;;;;4993000;28;20026;-72